Forside
METAR-TAF:

METAR-TAF

Lufthavne :

Sønderborg Lufthavn

Sønderborg, Danmark

Breddekreds: 54-58N, længdekreds: 009-47E, højde: 7 m

Aktuelle vejr

Denne rapport blev lavet for 28 minutter siden, kl. 19:50 UTC
Vind 4 kt fra sydøst
Temperatur 15°C
Fugtighed 94%
Tryk 1019 hPa
Sigt 10 km eller mere

METAR: EKSB 181950Z AUTO 14004KT 9999 NCD 15/14 Q1019

Tid: 22:18 (20:18 UTC)

Vejrudsigter

Denne rapport blev lavet for 8 timer og 22 minutter siden, kl. 11:56 UTC
Foreløbig gælder fra 18 på 12 UTC til 18 på 18 UTC
Vind 10 kt fra sydøst
Sigt 10 km eller mere
Nogle få skyer i en højde af 3000 ft

TAF: EKSB 181156Z 1812/1818 13010KT 9999 FEW030

Vejrobservationer og prognoser fra mere end 4000 lufthavne (METAR og TAF).

De gule og røde prikker repræsenterer de meteorologiske stationer.

Flyt musen over at se navnet på stationen.

Så klik over at se vejr observationer og prognoser.

At skifte det kort: Klik på de grønne knapper med et sort kors for at zoome ind; på den grønne knap med en bindestreg for at zoome ud; eller på de grønne pile for tilstødende kort.


METAR-TAF: